Time;durP1;ratioP1;P1;durP2;ratioP2;P2;SDS_P1;SDS_P2;PMS_P1;PMS_P2;Temp;Humidity;BMP_temperature;BMP_pressure;BME280_temperature;BME280_humidity;BME280_pressure;Samples;Min_cycle;Max_cycle;Signal;HPM_P1;HPM_P2
2023/11/20 00:02:44;;;;;;;12.40;4.57;;;;;;;7.49;100.00;99610.84;5141684;56;1138657;-74
2023/11/20 00:07:49;;;;;;;22.98;5.28;;;;;;;7.51;100.00;99608.09;5137264;56;1138862;-74
2023/11/20 00:12:55;;;;;;;24.32;4.92;;;;;;;7.54;100.00;99610.48;5137947;56;1138506;-74
2023/11/20 00:18:00;;;;;;;29.77;4.93;;;;;;;7.55;100.00;99614.80;5138152;56;1138981;-73
2023/11/20 00:23:06;;;;;;;24.80;5.67;;;;;;;7.58;100.00;99619.81;5158357;56;1138675;-73
2023/11/20 00:28:12;;;;;;;22.43;6.40;;;;;;;7.59;100.00;99626.75;5137755;56;1138713;-74
2023/11/20 00:33:17;;;;;;;20.92;5.95;;;;;;;7.61;100.00;99626.16;5110352;56;1138954;-74
2023/11/20 00:38:23;;;;;;;28.23;4.83;;;;;;;7.64;100.00;99626.73;5071429;56;1138849;-74
2023/11/20 00:43:28;;;;;;;23.73;6.93;;;;;;;7.65;100.00;99631.52;4970395;57;1139042;-74
2023/11/20 00:48:34;;;;;;;20.47;5.30;;;;;;;7.67;100.00;99633.55;4970166;57;1138582;-74
2023/11/20 00:53:40;;;;;;;31.53;5.50;;;;;;;7.67;100.00;99633.55;5126687;56;1138909;-75
2023/11/20 00:58:46;;;;;;;16.12;7.00;;;;;;;7.69;100.00;99637.73;5136822;56;1148509;-74
2023/11/20 01:03:51;;;;;;;13.80;4.60;;;;;;;7.70;100.00;99644.67;5137856;56;1138769;-74
2023/11/20 01:08:57;;;;;;;18.55;5.58;;;;;;;7.71;100.00;99650.77;5158027;56;1138873;-74
2023/11/20 01:14:05;;;;;;;16.70;5.23;;;;;;;7.72;100.00;99645.39;5137712;56;1138652;-74
2023/11/20 01:19:10;;;;;;;25.60;6.23;;;;;;;7.75;100.00;99649.58;5138007;56;1138814;-74
2023/11/20 01:24:15;;;;;;;15.07;4.83;;;;;;;7.76;100.00;99649.46;5157772;56;1138455;-74
2023/11/20 01:29:22;;;;;;;24.23;6.60;;;;;;;7.79;100.00;99648.86;5137193;56;1138833;-74
2023/11/20 01:34:27;;;;;;;16.07;4.57;;;;;;;7.80;100.00;99644.77;5137867;56;1138823;-74
2023/11/20 01:39:33;;;;;;;17.50;5.10;;;;;;;7.80;100.00;99647.39;5157053;56;1138885;-74
2023/11/20 01:44:38;;;;;;;17.17;6.03;;;;;;;7.83;100.00;99656.84;5137623;56;1138853;-74
2023/11/20 01:49:44;;;;;;;21.80;6.17;;;;;;;7.84;100.00;99651.46;5137885;56;1148093;-74
2023/11/20 01:54:50;;;;;;;17.30;4.65;;;;;;;7.83;100.00;99653.73;5157967;56;1138708;-74
2023/11/20 01:59:55;;;;;;;31.60;6.45;;;;;;;7.85;100.00;99647.03;5137976;56;1138571;-74
2023/11/20 02:05:01;;;;;;;19.43;5.33;;;;;;;7.86;100.00;99636.86;5138625;56;1138706;-74
2023/11/20 02:10:08;;;;;;;14.73;4.10;;;;;;;7.86;100.00;99646.08;5138653;56;1139029;-74
2023/11/20 02:15:14;;;;;;;14.67;4.10;;;;;;;7.85;100.00;99638.66;5157435;56;1138662;-74
2023/11/20 02:20:21;;;;;;;20.80;5.13;;;;;;;7.86;100.00;99637.70;5138242;56;1138739;-74
2023/11/20 02:25:27;;;;;;;20.43;5.33;;;;;;;7.86;100.00;99639.02;5137545;56;1138665;-74
2023/11/20 02:30:33;;;;;;;19.10;4.97;;;;;;;7.89;100.00;99639.26;5158809;56;1138772;-74
2023/11/20 02:35:38;;;;;;;13.13;3.33;;;;;;;7.89;100.00;99632.67;5138332;56;1138879;-74
2023/11/20 02:40:44;;;;;;;21.33;4.67;;;;;;;7.90;100.00;99639.14;5061314;56;1138897;-74
2023/11/20 02:45:50;;;;;;;19.82;4.40;;;;;;;7.91;100.00;99632.08;5039080;57;1138831;-74
2023/11/20 02:50:56;;;;;;;21.20;4.70;;;;;;;7.91;100.00;99627.65;5138103;56;1138868;-74
2023/11/20 02:56:02;;;;;;;17.32;4.90;;;;;;;7.90;100.00;99635.19;5065329;56;1138695;-74
2023/11/20 03:01:09;;;;;;;24.10;4.30;;;;;;;7.92;100.00;99639.86;5054018;57;1138906;-75
2023/11/20 03:06:15;;;;;;;17.23;4.87;;;;;;;7.92;100.00;99639.86;5073217;57;1138709;-74
2023/11/20 03:11:20;;;;;;;19.43;5.13;;;;;;;7.91;100.00;99634.70;5053705;57;1138898;-74
2023/11/20 03:16:26;;;;;;;13.60;4.30;;;;;;;7.90;100.00;99644.41;5043070;57;1138779;-74
2023/11/20 03:21:33;;;;;;;10.07;3.63;;;;;;;7.89;100.00;99641.41;4978101;58;1138744;-75
2023/11/20 03:26:38;;;;;;;15.80;4.50;;;;;;;7.90;100.00;99644.41;5127288;56;1138709;-74
2023/11/20 03:31:44;;;;;;;19.03;3.90;;;;;;;7.89;100.00;99646.67;5127409;56;1138960;-76
2023/11/20 03:36:50;;;;;;;18.82;4.00;;;;;;;7.90;100.00;99644.88;5152474;55;1138954;-74
2023/11/20 03:41:55;;;;;;;19.30;4.40;;;;;;;7.89;100.00;99638.78;4960326;57;1138756;-75
2023/11/20 03:47:01;;;;;;;17.47;3.83;;;;;;;7.89;100.00;99636.15;5013140;57;1138792;-74
2023/11/20 03:52:07;;;;;;;17.00;4.53;;;;;;;7.90;100.00;99638.30;5120911;56;1139134;-75
2023/11/20 03:57:12;;;;;;;19.93;4.07;;;;;;;7.87;100.00;99638.06;5062423;57;1138794;-74
2023/11/20 04:02:18;;;;;;;10.90;3.00;;;;;;;7.87;100.00;99630.16;5042421;57;1138559;-74
2023/11/20 04:07:24;;;;;;;10.07;3.50;;;;;;;7.88;100.00;99627.89;5042530;57;1138780;-74
2023/11/20 04:12:30;;;;;;;24.47;5.27;;;;;;;7.89;100.00;99622.14;5062347;57;1138562;-74
2023/11/20 04:17:36;;;;;;;21.03;4.77;;;;;;;7.92;100.00;99620.11;5107398;56;1138609;-74
2023/11/20 04:22:41;;;;;;;15.70;4.50;;;;;;;7.92;100.00;99617.48;5126087;56;1138749;-74
2023/11/20 04:27:52;;;;;;;15.50;4.03;;;;;;;7.92;100.00;99610.89;5126349;56;1193915;-74
2023/11/20 04:32:54;;;;;;;16.77;4.33;;;;;;;7.93;100.00;99613.88;5125687;56;1138945;-74
2023/11/20 04:37:59;;;;;;;21.35;4.05;;;;;;;7.92;100.00;99616.16;5095471;56;1138646;-75
2023/11/20 04:43:05;;;;;;;13.25;4.20;;;;;;;7.94;100.00;99613.41;5010356;57;1138577;-75
2023/11/20 04:48:10;;;;;;;9.37;3.80;;;;;;;7.94;100.00;99606.34;5061209;57;1138704;-74
2023/11/20 04:53:16;;;;;;;15.33;4.10;;;;;;;7.94;100.00;99597.13;4905237;58;1136792;-75
2023/11/20 04:58:22;;;;;;;16.33;4.27;;;;;;;7.95;100.00;99603.20;5126671;56;1138633;-74
2023/11/20 05:03:27;;;;;;;19.97;5.63;;;;;;;7.96;100.00;99607.51;5146878;56;1138607;-75
2023/11/20 05:08:33;;;;;;;8.73;3.00;;;;;;;7.95;100.00;99610.62;5126902;56;1138791;-75
2023/11/20 05:13:38;;;;;;;12.00;3.40;;;;;;;7.97;100.00;99617.92;5063459;56;1136810;-74
2023/11/20 05:18:44;;;;;;;12.27;3.67;;;;;;;7.96;100.00;99611.45;5060636;57;1138588;-75
2023/11/20 05:23:49;;;;;;;16.87;3.93;;;;;;;7.96;100.00;99612.30;5042625;57;1138742;-74
2023/11/20 05:28:55;;;;;;;14.15;3.85;;;;;;;7.96;100.00;99614.09;5042755;57;1138795;-75
2023/11/20 05:34:01;;;;;;;18.70;5.08;;;;;;;7.95;100.00;99611.94;5042641;56;1138898;-76
2023/11/20 05:39:07;;;;;;;18.37;7.17;;;;;;;7.96;100.00;99613.61;5061757;56;1138629;-75
2023/11/20 05:44:13;;;;;;;17.47;6.33;;;;;;;7.97;100.00;99614.45;5043335;56;1138864;-75
2023/11/20 05:49:18;;;;;;;12.50;5.17;;;;;;;7.98;100.00;99616.12;5065201;56;1138771;-75
2023/11/20 05:54:24;;;;;;;12.60;4.00;;;;;;;8.00;100.00;99617.67;5145938;56;1138801;-74
2023/11/20 05:59:30;;;;;;;13.08;4.40;;;;;;;8.00;100.00;99617.67;5084091;56;1138741;-76
2023/11/20 06:04:35;;;;;;;24.63;4.83;;;;;;;8.01;100.00;99623.30;5041940;56;1138687;-75
2023/11/20 06:09:42;;;;;;;16.57;4.00;;;;;;;8.02;100.00;99617.55;5066718;56;1138669;-76
2023/11/20 06:14:48;;;;;;;9.20;4.63;;;;;;;8.03;100.00;99620.55;5076980;55;1145123;-75
2023/11/20 06:19:53;;;;;;;9.73;3.58;;;;;;;8.03;100.00;99622.70;5084606;56;1136450;-75
2023/11/20 06:24:59;;;;;;;16.23;5.55;;;;;;;8.03;100.00;99628.45;5061586;57;1136674;-74
2023/11/20 06:30:05;;;;;;;15.53;4.30;;;;;;;8.03;100.00;99634.55;5046151;56;1138651;-75
2023/11/20 06:35:15;;;;;;;15.93;5.10;;;;;;;8.03;100.00;99638.50;5071936;56;1138735;-75
2023/11/20 06:40:20;;;;;;;19.70;5.70;;;;;;;8.03;100.00;99644.24;5069800;56;1138845;-74
2023/11/20 06:45:28;;;;;;;17.97;5.23;;;;;;;8.04;100.00;99655.97;5061758;56;1138784;-75
2023/11/20 06:50:33;;;;;;;21.90;6.23;;;;;;;8.07;100.00;99654.41;5072562;56;1138894;-78
2023/11/20 06:55:41;;;;;;;18.95;5.58;;;;;;;8.08;100.00;99651.30;5061673;56;1138642;-77
2023/11/20 07:00:46;;;;;;;17.77;5.23;;;;;;;8.09;100.00;99651.66;4964814;57;1138750;-77
2023/11/20 07:05:52;;;;;;;13.47;4.20;;;;;;;8.09;100.00;99663.03;5042355;57;1138764;-75
2023/11/20 07:10:59;;;;;;;18.30;4.58;;;;;;;8.11;100.00;99667.66;5119759;56;1138701;-74
2023/11/20 07:16:05;;;;;;;32.57;13.80;;;;;;;8.12;100.00;99664.55;5122573;56;1138757;-76
2023/11/20 07:21:10;;;;;;;30.90;13.25;;;;;;;8.13;100.00;99668.86;5063366;56;1140825;-76
2023/11/20 07:26:19;;;;;;;22.97;6.93;;;;;;;8.16;100.00;99673.05;5074451;56;1140805;-78
2023/11/20 07:31:31;;;;;;;16.77;6.37;;;;;;;8.18;100.00;99682.98;5098107;56;1138846;-77
2023/11/20 07:36:37;;;;;;;18.43;10.50;;;;;;;8.20;100.00;99679.75;5088444;56;1138953;-74
2023/11/20 07:41:43;;;;;;;24.90;11.60;;;;;;;8.22;100.00;99678.67;5105623;56;1141037;-77
2023/11/20 07:46:49;;;;;;;17.60;7.53;;;;;;;8.25;100.00;99682.34;5142922;56;1140909;-74
2023/11/20 07:51:54;;;;;;;26.05;7.97;;;;;;;8.28;100.00;99683.91;5051236;56;1138752;-77
2023/11/20 07:57:03;;;;;;;19.82;5.14;;;;;;;8.31;100.00;99687.61;5069825;56;1138676;-75
2023/11/20 08:02:09;;;;;;;23.10;6.27;;;;;;;8.32;100.00;99684.89;5072691;56;1138582;-69
2023/11/20 08:07:15;;;;;;;27.77;7.67;;;;;;;8.37;100.00;99695.90;5119868;56;1138588;-67
2023/11/20 08:12:20;;;;;;;23.27;9.83;;;;;;;8.43;100.00;99693.22;5054098;56;1138703;-68
2023/11/20 08:17:26;;;;;;;19.03;8.47;;;;;;;8.47;100.00;99693.34;5073758;56;1138895;-69
2023/11/20 08:22:32;;;;;;;13.93;7.13;;;;;;;8.51;100.00;99696.56;5074357;56;1138839;-70
2023/11/20 08:27:40;;;;;;;17.50;7.97;;;;;;;8.52;100.00;99696.44;5093935;56;1139007;-71
2023/11/20 08:32:45;;;;;;;25.50;8.33;;;;;;;8.57;100.00;99702.63;5068785;56;1138632;-67
2023/11/20 08:37:51;;;;;;;13.97;6.83;;;;;;;8.59;100.00;99700.23;5031724;56;1141803;-72
2023/11/20 08:42:57;;;;;;;21.67;8.70;;;;;;;8.65;100.00;99702.84;5042923;56;1138718;-70
2023/11/20 08:48:05;;;;;;;42.07;14.90;;;;;;;8.65;100.00;99689.67;5062651;56;1138777;-69
2023/11/20 08:53:10;;;;;;;18.60;8.10;;;;;;;8.68;100.00;99686.31;5145792;56;1140730;-72
2023/11/20 08:58:16;;;;;;;14.90;6.47;;;;;;;8.73;100.00;99692.02;5109214;56;1138823;-70
2023/11/20 09:03:21;;;;;;;22.87;10.73;;;;;;;8.77;100.00;99692.60;5126130;56;1138421;-75
2023/11/20 09:08:27;;;;;;;18.13;7.83;;;;;;;8.77;100.00;99693.44;5137005;56;1140783;-72
2023/11/20 09:13:32;;;;;;;13.27;5.23;;;;;;;8.84;100.00;99700.84;5041942;56;1138807;-74
2023/11/20 09:18:38;;;;;;;9.60;5.10;;;;;;;8.88;100.00;99692.53;4964587;57;1138841;-73
2023/11/20 09:23:45;;;;;;;10.23;4.23;;;;;;;8.93;100.00;99696.11;5060125;56;1136732;-72
2023/11/20 09:28:50;;;;;;;16.48;5.55;;;;;;;8.96;100.00;99690.59;5057498;57;1142033;-75
2023/11/20 09:33:58;;;;;;;15.43;5.65;;;;;;;8.99;100.00;99683.27;5039545;56;1138667;-75
2023/11/20 09:39:04;;;;;;;11.70;5.45;;;;;;;9.02;100.00;99685.61;5033166;57;1140000;-74
2023/11/20 09:44:12;;;;;;;27.83;12.07;;;;;;;9.05;100.00;99687.16;4993009;57;1138456;-73
2023/11/20 09:49:28;;;;;;;23.32;9.95;;;;;;;9.08;100.00;99684.27;4973988;56;1140652;-74
2023/11/20 09:54:30;;;;;;;14.83;7.13;;;;;;;9.13;100.00;99684.73;4968110;56;1138983;-75
2023/11/20 09:59:36;;;;;;;14.23;5.63;;;;;;;9.17;100.00;99687.44;4997058;56;1138792;-73
2023/11/20 10:04:44;;;;;;;15.53;4.80;;;;;;;9.18;100.00;99675.92;4971948;57;1138640;-74
2023/11/20 10:09:52;;;;;;;15.30;6.47;;;;;;;9.22;100.00;99676.50;4989086;56;1138850;-71
2023/11/20 10:14:58;;;;;;;13.18;7.00;;;;;;;9.24;100.00;99667.49;5044116;56;1138925;-70
2023/11/20 10:20:09;;;;;;;13.60;7.87;;;;;;;9.26;100.00;99666.88;5052354;56;1139153;-70
2023/11/20 10:25:11;;;;;;;20.53;7.97;;;;;;;9.27;100.00;99667.72;5046508;55;1139007;-69
2023/11/20 10:30:19;;;;;;;20.93;7.80;;;;;;;9.28;100.00;99668.91;5089546;56;1138579;-69
2023/11/20 10:35:29;;;;;;;15.40;9.10;;;;;;;9.30;100.00;99660.87;5052595;57;1138707;-73
2023/11/20 10:40:35;;;;;;;15.03;6.53;;;;;;;9.30;100.00;99657.74;5055889;56;1139135;-76
2023/11/20 10:45:41;;;;;;;19.90;8.00;;;;;;;9.36;100.00;99653.24;5133438;56;1138633;-76
2023/11/20 10:50:49;;;;;;;19.27;6.70;;;;;;;9.42;100.00;99643.48;5055773;56;1139042;-75
2023/11/20 10:55:57;;;;;;;17.03;7.23;;;;;;;9.44;100.00;99635.44;4972829;57;1138793;-69
2023/11/20 11:01:03;;;;;;;15.13;7.17;;;;;;;9.47;100.00;99639.94;5090284;56;1138758;-67
2023/11/20 11:06:15;;;;;;;29.95;10.13;;;;;;;9.45;100.00;99628.70;4933635;57;1138970;-70
2023/11/20 11:11:18;;;;;;;13.22;7.37;;;;;;;9.46;100.00;99627.74;4990686;57;1140757;-72
2023/11/20 11:16:30;;;;;;;18.30;7.23;;;;;;;9.49;100.00;99627.94;5056659;56;1138880;-68
2023/11/20 11:21:46;;;;;;;41.93;13.07;;;;;;;9.51;100.00;99623.36;5054246;56;1138670;-68
2023/11/20 11:27:07;;;;;;;10.90;6.03;;;;;;;9.53;100.00;99616.14;5045064;56;1140795;-72
2023/11/20 11:32:32;;;;;;;14.63;6.80;;;;;;;9.59;100.00;99615.62;5128903;55;1138692;-70
2023/11/20 11:37:54;;;;;;;6.27;4.40;;;;;;;9.64;100.00;99615.20;5102146;55;1138690;-69
2023/11/20 11:43:07;;;;;;;10.22;4.92;;;;;;;9.69;100.00;99615.63;5120083;56;1137211;-68
2023/11/20 11:48:13;;;;;;;12.43;4.10;;;;;;;9.67;100.00;99613.61;5075011;56;1138631;-75
2023/11/20 11:53:18;;;;;;;11.27;4.13;;;;;;;9.73;100.00;99611.28;5043099;56;1138792;-76
2023/11/20 11:58:25;;;;;;;8.97;3.77;;;;;;;9.77;100.00;99614.48;5062730;56;1138779;-76
2023/11/20 12:03:38;;;;;;;10.07;5.10;;;;;;;9.82;100.00;99612.25;5020712;56;1136659;-74
2023/11/20 12:08:48;;;;;;;10.17;4.67;;;;;;;9.83;100.00;99609.48;5084512;56;1138604;-73
2023/11/20 12:14:13;;;;;;;7.83;4.35;;;;;;;9.88;100.00;99615.69;5146800;56;1138784;-76
2023/11/20 12:19:19;;;;;;;12.23;6.90;;;;;;;9.90;100.00;99609.78;5104983;55;1136824;-73
2023/11/20 12:24:26;;;;;;;12.73;5.73;;;;;;;9.88;100.00;99615.20;5028235;56;1138882;-73
2023/11/20 12:29:32;;;;;;;8.40;5.07;;;;;;;9.85;100.00;99611.98;5057312;57;1138687;-73
2023/11/20 12:34:38;;;;;;;12.47;5.13;;;;;;;9.84;100.00;99610.31;5036549;57;1136517;-75
2023/11/20 12:39:43;;;;;;;11.80;5.87;;;;;;;9.82;100.00;99609.12;5100214;56;1138686;-74
2023/11/20 12:44:49;;;;;;;11.90;6.97;;;;;;;9.79;100.00;99606.75;4978142;58;1138821;-75
2023/11/20 12:49:56;;;;;;;11.97;7.00;;;;;;;9.80;100.00;99603.63;5112309;56;1138991;-76
2023/11/20 12:55:03;;;;;;;13.45;8.13;;;;;;;9.81;100.00;99613.22;5042637;57;1138577;-75
2023/11/20 13:00:11;;;;;;;18.05;7.97;;;;;;;9.80;100.00;99615.52;5102458;55;1138715;-73
2023/11/20 13:05:17;;;;;;;23.53;12.33;;;;;;;9.82;100.00;99618.86;5145810;56;1138882;-74
2023/11/20 13:10:24;;;;;;;132.60;60.57;;;;;;;9.83;100.00;99616.56;5124370;56;1140713;-73
2023/11/20 13:15:31;;;;;;;112.43;54.60;;;;;;;9.85;100.00;99618.11;5099507;56;1142948;-75
2023/11/20 13:20:40;;;;;;;20.97;10.57;;;;;;;9.85;100.00;99616.78;5062098;56;1143108;-74
2023/11/20 13:25:49;;;;;;;26.80;13.47;;;;;;;9.84;100.00;99630.13;5047247;56;1140936;-73
2023/11/20 13:31:09;;;;;;;126.42;60.48;;;;;;;9.80;100.00;99632.19;5133400;56;1140840;-75
2023/11/20 13:36:15;;;;;;;50.20;39.30;;;;;;;9.83;100.00;99627.13;5137817;55;1143175;-74
2023/11/20 13:41:20;;;;;;;83.43;60.40;;;;;;;9.83;100.00;99622.69;5145636;56;1140956;-75
2023/11/20 13:46:29;;;;;;;40.33;23.67;;;;;;;9.84;100.00;99624.84;5055741;56;1140790;-74
2023/11/20 13:51:33;;;;;;;48.37;19.30;;;;;;;9.83;100.00;99624.48;5060975;56;1140771;-75
2023/11/20 13:56:39;;;;;;;47.07;20.20;;;;;;;9.84;100.00;99626.16;5140530;55;1140954;-75
2023/11/20 14:01:45;;;;;;;104.17;52.63;;;;;;;9.82;100.00;99623.66;4945995;57;1140633;-74
2023/11/20 14:06:50;;;;;;;61.43;33.77;;;;;;;9.85;100.00;99632.63;5086452;56;1143046;-73
2023/11/20 14:11:56;;;;;;;34.37;19.13;;;;;;;9.92;100.00;99632.94;5094906;56;1140943;-76
2023/11/20 14:17:02;;;;;;;18.60;9.90;;;;;;;9.97;100.00;99637.78;5112284;56;1140812;-74
2023/11/20 14:22:09;;;;;;;20.17;10.93;;;;;;;9.95;100.00;99636.59;5126584;55;1138908;-74
2023/11/20 14:27:15;;;;;;;23.57;12.87;;;;;;;9.90;100.00;99646.76;5146242;56;1162269;-73
2023/11/20 14:32:21;;;;;;;42.80;20.13;;;;;;;9.79;100.00;99641.08;5126025;56;1140781;-73
2023/11/20 14:37:26;;;;;;;48.27;25.07;;;;;;;9.74;100.00;99647.27;5105115;55;1140917;-75
2023/11/20 14:42:32;;;;;;;46.93;23.30;;;;;;;9.72;100.00;99646.58;5134022;55;1140743;-74
2023/11/20 14:47:42;;;;;;;51.53;19.97;;;;;;;9.76;100.00;99648.47;5051532;56;1141071;-73
2023/11/20 14:52:53;;;;;;;27.60;15.83;;;;;;;9.75;100.00;99642.83;5052614;56;1140717;-74
2023/11/20 14:57:58;;;;;;;45.23;22.67;;;;;;;9.73;100.00;99640.81;5076295;56;1140965;-75
2023/11/20 15:03:03;;;;;;;30.15;13.50;;;;;;;9.75;100.00;99649.43;5061642;56;1140741;-74
2023/11/20 15:08:09;;;;;;;55.05;29.42;;;;;;;9.74;100.00;99643.80;5118777;55;1140796;-73
2023/11/20 15:13:15;;;;;;;58.53;30.03;;;;;;;9.67;100.00;99651.41;5116168;56;1141013;-73
2023/11/20 15:18:20;;;;;;;85.77;36.20;;;;;;;9.56;100.00;99662.08;5137001;56;1140943;-73
2023/11/20 15:23:29;;;;;;;77.70;31.80;;;;;;;9.53;100.00;99657.90;5136859;56;1141054;-74
2023/11/20 15:28:33;;;;;;;96.27;37.33;;;;;;;9.53;100.00;99657.90;5133454;56;1140930;-73
2023/11/20 15:33:39;;;;;;;97.97;41.23;;;;;;;9.60;100.00;99660.02;5113826;56;1141050;-73
2023/11/20 15:38:44;;;;;;;105.20;43.97;;;;;;;9.57;100.00;99664.23;5096927;56;1141373;-74
2023/11/20 15:43:50;;;;;;;110.60;45.83;;;;;;;9.50;100.00;99663.44;5159003;56;1142862;-75
2023/11/20 15:48:55;;;;;;;156.93;54.17;;;;;;;9.47;100.00;99668.97;5138808;56;1142863;-75
2023/11/20 15:54:02;;;;;;;162.80;59.23;;;;;;;9.49;100.00;99671.48;5138738;56;1143091;-76
2023/11/20 15:59:07;;;;;;;153.70;61.23;;;;;;;9.53;100.00;99670.26;5137938;56;1142940;-73
2023/11/20 16:04:13;;;;;;;143.40;57.70;;;;;;;9.55;100.00;99667.48;5135570;56;1143020;-75
2023/11/20 16:09:22;;;;;;;152.53;56.02;;;;;;;9.50;100.00;99675.31;5114113;56;1142918;-72
2023/11/20 16:14:27;;;;;;;165.03;65.93;;;;;;;9.46;100.00;99682.33;5138677;56;1143162;-72
2023/11/20 16:19:33;;;;;;;168.73;67.63;;;;;;;9.48;100.00;99686.48;5158125;56;1142988;-73
2023/11/20 16:24:38;;;;;;;124.33;59.23;;;;;;;9.54;100.00;99690.41;5126930;56;1142895;-73
2023/11/20 16:29:45;;;;;;;79.12;34.90;;;;;;;9.55;100.00;99689.45;5072022;56;1142822;-74
2023/11/20 16:34:51;;;;;;;78.83;42.43;;;;;;;9.45;100.00;99696.02;5100295;56;1140826;-74
2023/11/20 16:39:56;;;;;;;69.30;36.83;;;;;;;9.36;100.00;99708.66;5126848;56;1141197;-74
2023/11/20 16:45:04;;;;;;;67.87;30.07;;;;;;;9.25;100.00;99706.11;5126717;56;1140748;-74
2023/11/20 16:50:10;;;;;;;75.47;32.20;;;;;;;9.12;100.00;99708.95;5058781;56;1140970;-74
2023/11/20 16:55:16;;;;;;;125.33;49.20;;;;;;;9.04;100.00;99706.11;5060310;56;1140704;-74
2023/11/20 17:00:24;;;;;;;86.23;38.37;;;;;;;8.98;100.00;99707.96;5069530;56;1143024;-74
2023/11/20 17:05:31;;;;;;;80.50;34.47;;;;;;;8.89;100.00;99699.96;5126398;56;1140818;-72
2023/11/20 17:10:36;;;;;;;77.00;35.17;;;;;;;8.78;100.00;99701.70;5146467;56;1140868;-72
2023/11/20 17:15:42;;;;;;;83.23;34.77;;;;;;;8.67;100.00;99701.77;5125977;56;1140981;-74
2023/11/20 17:20:49;;;;;;;72.63;33.40;;;;;;;8.59;100.00;99714.72;5117926;56;1140658;-76
2023/11/20 17:25:55;;;;;;;85.47;35.73;;;;;;;8.52;100.00;99718.00;5034596;57;1140739;-74
2023/11/20 17:31:03;;;;;;;74.10;33.43;;;;;;;8.44;100.00;99718.13;5118727;56;1140870;-74
2023/11/20 17:36:13;;;;;;;77.85;35.73;;;;;;;8.41;100.00;99716.22;5124018;56;1142846;-73
2023/11/20 17:41:19;;;;;;;79.10;34.43;;;;;;;8.39;100.00;99722.96;5045445;57;1141268;-74
2023/11/20 17:46:26;;;;;;;79.83;35.43;;;;;;;8.43;100.00;99720.41;5118233;56;1140837;-73
2023/11/20 17:51:31;;;;;;;90.43;37.63;;;;;;;8.40;100.00;99721.16;5138664;56;1141058;-72
2023/11/20 17:56:53;;;;;;;118.27;45.30;;;;;;;8.39;100.00;99733.50;5113689;56;1140731;-75
2023/11/20 18:01:55;;;;;;;94.47;40.03;;;;;;;8.41;100.00;99721.02;5076710;57;1142815;-75
2023/11/20 18:07:02;;;;;;;113.07;43.20;;;;;;;8.40;100.00;99736.46;5057775;57;1140951;-75
2023/11/20 18:12:08;;;;;;;104.12;42.33;;;;;;;8.35;100.00;99740.45;5057169;56;1142913;-74
2023/11/20 18:17:13;;;;;;;104.37;41.30;;;;;;;8.38;100.00;99750.27;5057507;57;1142964;-74
2023/11/20 18:22:20;;;;;;;99.37;42.37;;;;;;;8.38;100.00;99750.27;5087392;56;1142669;-74
2023/11/20 18:27:26;;;;;;;101.63;40.53;;;;;;;8.38;100.00;99752.06;5140707;56;1140991;-75
2023/11/20 18:32:31;;;;;;;101.97;41.87;;;;;;;8.33;100.00;99761.64;5141682;56;1142573;-75
2023/11/20 18:37:39;;;;;;;88.60;40.27;;;;;;;8.25;100.00;99758.74;5136801;56;1143082;-73
2023/11/20 18:42:45;;;;;;;117.53;56.17;;;;;;;8.23;100.00;99757.22;5057208;57;1140943;-73
2023/11/20 18:47:51;;;;;;;91.03;39.63;;;;;;;8.20;100.00;99765.36;5126754;56;1142936;-73
2023/11/20 18:52:57;;;;;;;67.67;29.27;;;;;;;8.13;100.00;99771.58;5149504;56;1140752;-75
2023/11/20 18:58:03;;;;;;;55.90;26.63;;;;;;;8.06;100.00;99787.05;5113260;56;1251305;-75
2023/11/20 19:03:08;;;;;;;43.67;24.37;;;;;;;7.91;100.00;99792.20;5142793;56;1140995;-74
2023/11/20 19:08:14;;;;;;;41.75;22.05;;;;;;;7.75;100.00;99805.71;5143172;56;1140852;-73
2023/11/20 19:13:20;;;;;;;43.83;21.57;;;;;;;7.58;100.00;99801.38;5163135;56;1140737;-73
2023/11/20 19:18:27;;;;;;;34.73;19.50;;;;;;;7.43;100.00;99802.08;5132694;56;1140797;-75
2023/11/20 19:23:32;;;;;;;49.53;26.47;;;;;;;7.32;100.00;99808.16;5081596;55;1140825;-75
2023/11/20 19:28:38;;;;;;;56.60;26.97;;;;;;;7.23;100.00;99807.98;5098681;56;1140734;-74
2023/11/20 19:33:45;;;;;;;51.77;25.90;;;;;;;7.19;100.00;99809.16;5057522;57;1141045;-74
2023/11/20 19:38:52;;;;;;;46.45;22.25;;;;;;;7.13;100.00;99812.27;5102209;56;1140770;-73
2023/11/20 19:43:58;;;;;;;50.90;21.90;;;;;;;7.09;100.00;99811.66;5099072;56;1140703;-75
2023/11/20 19:49:03;;;;;;;35.80;18.43;;;;;;;7.08;100.00;99817.86;5126684;56;1140822;-74
2023/11/20 19:54:09;;;;;;;37.27;19.97;;;;;;;7.06;100.00;99817.97;5041873;57;1140862;-75
2023/11/20 19:59:16;;;;;;;38.42;17.77;;;;;;;6.95;100.00;99814.47;5146111;56;1140651;-73
2023/11/20 20:04:22;;;;;;;37.03;18.20;;;;;;;6.83;100.00;99825.42;5023095;57;1140970;-75
2023/11/20 20:09:27;;;;;;;33.73;19.30;;;;;;;6.78;100.00;99827.53;5100400;55;1140592;-73
2023/11/20 20:14:33;;;;;;;55.60;29.80;;;;;;;6.74;100.00;99833.11;5145352;56;1140710;-73
2023/11/20 20:19:44;;;;;;;45.10;23.07;;;;;;;6.73;100.00;99828.33;5113596;55;1140725;-74
2023/11/20 20:24:49;;;;;;;43.30;22.40;;;;;;;6.76;100.00;99827.27;5120259;56;1141072;-75
2023/11/20 20:29:55;;;;;;;36.80;19.47;;;;;;;6.74;100.00;99819.50;5138589;56;1140950;-73
2023/11/20 20:35:00;;;;;;;37.33;20.83;;;;;;;6.65;100.00;99823.65;5125798;56;1140714;-74
2023/11/20 20:40:11;;;;;;;39.70;19.40;;;;;;;6.47;100.00;99822.81;5060321;56;1156934;-73
2023/11/20 20:45:15;;;;;;;40.80;20.77;;;;;;;6.37;100.00;99830.52;5041909;56;1141006;-73
2023/11/20 20:50:22;;;;;;;37.13;19.93;;;;;;;6.40;100.00;99840.81;5074971;57;1140956;-75
2023/11/20 20:55:28;;;;;;;29.23;17.13;;;;;;;6.39;100.00;99840.92;5053306;56;1166635;-74
2023/11/20 21:00:35;;;;;;;26.60;13.87;;;;;;;6.26;100.00;99836.52;5053369;56;1239566;-74
2023/11/20 21:05:41;;;;;;;17.80;10.63;;;;;;;6.07;100.00;99832.22;5072626;56;1140783;-73
2023/11/20 21:10:47;;;;;;;41.87;18.77;;;;;;;5.97;100.00;99887.58;4988615;57;1140730;-73
2023/11/20 21:15:54;;;;;;;33.10;15.38;;;;;;;5.89;100.00;99884.19;5024342;56;1140863;-75
2023/11/20 21:21:00;;;;;;;28.03;13.30;;;;;;;5.97;100.00;99866.11;4993062;57;1140608;-72
2023/11/20 21:26:06;;;;;;;28.03;15.07;;;;;;;5.98;100.00;99873.05;4973293;57;1140866;-72
2023/11/20 21:31:12;;;;;;;44.42;21.20;;;;;;;5.99;100.00;99870.80;5029311;56;1141131;-74
2023/11/20 21:36:23;;;;;;;38.45;17.25;;;;;;;5.99;100.00;99868.17;5048553;56;1141024;-74
2023/11/20 21:41:29;;;;;;;29.75;14.65;;;;;;;5.95;100.00;99877.22;5052796;56;1140644;-72
2023/11/20 21:46:35;;;;;;;27.40;15.23;;;;;;;5.88;100.00;99882.51;5055503;56;1140795;-72
2023/11/20 21:51:40;;;;;;;38.97;17.60;;;;;;;5.80;100.00;99882.64;5134446;56;1140727;-72
2023/11/20 21:56:46;;;;;;;29.97;14.77;;;;;;;5.79;100.00;99892.30;5110000;56;1140757;-73
2023/11/20 22:01:51;;;;;;;27.37;11.90;;;;;;;5.72;100.00;99898.89;5039492;56;1246206;-73
2023/11/20 22:06:57;;;;;;;32.93;16.40;;;;;;;5.66;100.00;99905.84;5075200;56;1141255;-72
2023/11/20 22:12:03;;;;;;;45.27;18.30;;;;;;;5.56;100.00;99906.11;5043730;56;1261154;-73
2023/11/20 22:17:09;;;;;;;31.40;16.70;;;;;;;5.50;100.00;99905.22;5052959;57;1245103;-73
2023/11/20 22:22:14;;;;;;;33.13;16.23;;;;;;;5.45;100.00;99899.43;5052598;57;1245320;-72
2023/11/20 22:27:20;;;;;;;26.48;15.70;;;;;;;5.39;100.00;99899.35;5062678;57;1232579;-73
2023/11/20 22:32:25;;;;;;;34.03;16.50;;;;;;;5.17;100.00;99883.38;5046783;57;1243349;-73
2023/11/20 22:37:32;;;;;;;34.87;16.10;;;;;;;5.24;100.00;99896.43;5028944;57;1240053;-73
2023/11/20 22:42:39;;;;;;;35.63;15.93;;;;;;;5.23;100.00;99910.00;5049832;57;1141507;-73
2023/11/20 22:47:45;;;;;;;32.13;16.83;;;;;;;5.21;100.00;99923.68;4985130;57;1253801;-72
2023/11/20 22:52:50;;;;;;;43.00;15.23;;;;;;;5.15;100.00;99920.16;5004813;56;1254294;-74
2023/11/20 22:57:56;;;;;;;30.97;15.53;;;;;;;5.13;100.00;99915.95;5060636;56;1253612;-73
2023/11/20 23:03:02;;;;;;;41.00;16.97;;;;;;;5.02;100.00;99924.52;5041607;56;1242211;-72